PWSweather.com
Personal Weather Stations
Station Observations
NEWFAL01
Newton Falls, OH 44444

Newton Falls, OH 44444

Lat: 41.19902, Lon: -80.97668

Elevation: 920

Station Type: Vantage Pro 2

http://www.mvweathercenter.com

Latest ConditionsUpdated 12:00:01 PM EST Monday, Jan 21, 2019
Currently Today's Max Today's Min Today's Average
Temperature 12.1°F-11.1°C 12.1°F-11.1°C 1.8°F-16.8°C 5.1°F-14.9°C
Dew Point 2.9°F-16.2°C 3.1°F-16.1°C -4.0°F-20.0°C -0.9°F-18.3°C
Winds 5.8 mph N9.3 kmh N 11.5 mph -18.5 kmh - - 1.0 mph 1.6 kmh
Wind Gusts 8.1 mph13.0 kmh 16.1 mph25.9 kmh - -
Humidity 66% 80% 66% 76%
Pressure 30.59 in1035.9 mb 30.59 in1035.9 mb 30.30 in1026.1 mb -
Hour Temp Dew Point Humidity Winds Wind Gusts Pressure Precip Precip Rate Daily Precip Total
12:00 PM 12.1°F-11.1°C 2.9°F-16.2°C 66% 5.8 mph N9.3 kmh N 8.1 mph13.0 kmh 30.59 in1035.9 mb - 0.00 in0.0 mm 0.00 in0.0 mm
11:50 AM 11.7°F-11.3°C 2.5°F-16.4°C 66% 1.2 mph N1.9 kmh N 5.8 mph9.3 kmh 30.58 in1035.6 mb - 0.00 in0.0 mm 0.00 in0.0 mm
11:45 AM 11.7°F-11.3°C 2.8°F-16.2°C 67% 2.3 mph NNE3.7 kmh NNE 3.5 mph5.6 kmh 30.58 in1035.6 mb - 0.00 in0.0 mm 0.00 in0.0 mm
11:40 AM 11.7°F-11.3°C 2.8°F-16.2°C 67% 1.2 mph NNW1.9 kmh NNW 3.5 mph5.6 kmh 30.58 in1035.6 mb - 0.00 in0.0 mm 0.00 in0.0 mm
11:35 AM 11.6°F-11.3°C 3.1°F-16.1°C 68% 1.2 mph NNW1.9 kmh NNW 1.2 mph1.9 kmh 30.58 in1035.6 mb - 0.00 in0.0 mm 0.00 in0.0 mm
11:30 AM 11.6°F-11.3°C 3.1°F-16.1°C 68% 1.2 mph NNW1.9 kmh NNW 3.5 mph5.6 kmh 30.58 in1035.6 mb - 0.00 in0.0 mm 0.00 in0.0 mm
11:25 AM 11.3°F-11.5°C 3.1°F-16.1°C 69% Calm Calm 4.6 mph7.4 kmh 30.58 in1035.6 mb - 0.00 in0.0 mm 0.00 in0.0 mm
11:20 AM 11.0°F-11.7°C 2.5°F-16.4°C 68% 6.9 mph NNE11.1 kmh NNE 5.8 mph9.3 kmh 30.58 in1035.6 mb - 0.00 in0.0 mm 0.00 in0.0 mm
11:15 AM 10.9°F-11.7°C 2.7°F-16.3°C 69% 11.5 mph N18.5 kmh N 16.1 mph25.9 kmh 30.58 in1035.6 mb - 0.00 in0.0 mm 0.00 in0.0 mm
11:10 AM 11.0°F-11.7°C 2.8°F-16.2°C 69% 6.9 mph NNW11.1 kmh NNW 5.8 mph9.3 kmh 30.58 in1035.6 mb - 0.00 in0.0 mm 0.00 in0.0 mm
11:00 AM 10.8°F-11.8°C 2.6°F-16.3°C 69% 1.2 mph NE1.9 kmh NE 1.2 mph1.9 kmh 30.57 in1035.2 mb - 0.00 in0.0 mm 0.00 in0.0 mm
10:55 AM 10.8°F-11.8°C 2.6°F-16.3°C 69% 5.8 mph WNW9.3 kmh WNW 9.2 mph14.8 kmh 30.57 in1035.2 mb - 0.00 in0.0 mm 0.00 in0.0 mm
10:50 AM 10.7°F-11.8°C 2.5°F-16.4°C 69% 6.9 mph N11.1 kmh N 8.1 mph13.0 kmh 30.57 in1035.2 mb - 0.00 in0.0 mm 0.00 in0.0 mm
10:45 AM 10.7°F-11.8°C 2.5°F-16.4°C 69% 5.8 mph N9.3 kmh N 5.8 mph9.3 kmh 30.57 in1035.2 mb - 0.00 in0.0 mm 0.00 in0.0 mm
10:40 AM 10.7°F-11.8°C 2.5°F-16.4°C 69% 3.5 mph 5.6 kmh 10.4 mph16.7 kmh 30.57 in1035.2 mb - 0.00 in0.0 mm 0.00 in0.0 mm
10:35 AM 10.6°F-11.9°C 2.7°F-16.3°C 70% 5.8 mph N9.3 kmh N 9.2 mph14.8 kmh 30.57 in1035.2 mb - 0.00 in0.0 mm 0.00 in0.0 mm
10:30 AM 10.4°F-12.0°C 2.5°F-16.4°C 70% 2.3 mph WNW3.7 kmh WNW 3.5 mph5.6 kmh 30.57 in1035.2 mb - 0.00 in0.0 mm 0.00 in0.0 mm
10:25 AM 10.3°F-12.1°C 2.7°F-16.3°C 71% 5.8 mph NW9.3 kmh NW 4.6 mph7.4 kmh 30.56 in1034.9 mb - 0.00 in0.0 mm 0.00 in0.0 mm
10:20 AM 9.9°F-12.3°C 2.4°F-16.4°C 71% Calm Calm -- 30.56 in1034.9 mb - 0.00 in0.0 mm 0.00 in0.0 mm
10:15 AM 9.8°F-12.3°C 2.6°F-16.3°C 72% 1.2 mph NW1.9 kmh NW 3.5 mph5.6 kmh 30.55 in1034.5 mb - 0.00 in0.0 mm 0.00 in0.0 mm
10:10 AM 9.5°F-12.5°C 2.3°F-16.5°C 72% 1.2 mph NW1.9 kmh NW 1.2 mph1.9 kmh 30.55 in1034.5 mb - 0.00 in0.0 mm 0.00 in0.0 mm
10:00 AM 8.9°F-12.8°C 2.0°F-16.7°C 73% Calm Calm 3.5 mph5.6 kmh 30.55 in1034.5 mb - 0.00 in0.0 mm 0.00 in0.0 mm
09:55 AM 8.8°F-12.9°C 2.2°F-16.6°C 74% 3.5 mph N5.6 kmh N 15.0 mph24.1 kmh 30.54 in1034.2 mb - 0.00 in0.0 mm 0.00 in0.0 mm
09:50 AM 8.5°F-13.1°C 2.2°F-16.6°C 75% Calm Calm -- 30.54 in1034.2 mb - 0.00 in0.0 mm 0.00 in0.0 mm
09:45 AM 8.2°F-13.2°C 1.9°F-16.7°C 75% Calm Calm -- 30.54 in1034.2 mb - 0.00 in0.0 mm 0.00 in0.0 mm
09:40 AM 7.9°F-13.4°C 1.6°F-16.9°C 75% 1.2 mph WSW1.9 kmh WSW 4.6 mph7.4 kmh 30.54 in1034.2 mb - 0.00 in0.0 mm 0.00 in0.0 mm
09:35 AM 7.5°F-13.6°C 1.5°F-16.9°C 76% Calm Calm -- 30.53 in1033.9 mb - 0.00 in0.0 mm 0.00 in0.0 mm
09:30 AM 7.1°F-13.8°C 1.1°F-17.2°C 76% Calm Calm -- 30.53 in1033.9 mb - 0.00 in0.0 mm 0.00 in0.0 mm
09:25 AM 6.9°F-13.9°C 0.9°F-17.3°C 76% 1.2 mph NW1.9 kmh NW 1.2 mph1.9 kmh 30.53 in1033.9 mb - 0.00 in0.0 mm 0.00 in0.0 mm
09:15 AM 6.4°F-14.2°C 0.7°F-17.4°C 77% Calm Calm -- 30.53 in1033.9 mb - 0.00 in0.0 mm 0.00 in0.0 mm
09:10 AM 6.1°F-14.4°C 0.4°F-17.6°C 77% Calm Calm 1.2 mph1.9 kmh 30.52 in1033.5 mb - 0.00 in0.0 mm 0.00 in0.0 mm
09:00 AM 5.5°F-14.7°C 0.1°F-17.7°C 78% Calm Calm -- 30.51 in1033.2 mb - 0.00 in0.0 mm 0.00 in0.0 mm
08:55 AM 5.0°F-15.0°C -0.4°F-18.0°C 78% Calm Calm 3.5 mph5.6 kmh 30.51 in1033.2 mb - 0.00 in0.0 mm 0.00 in0.0 mm
08:50 AM 4.5°F-15.3°C -0.8°F-18.2°C 78% Calm Calm 1.2 mph1.9 kmh 30.51 in1033.2 mb - 0.00 in0.0 mm 0.00 in0.0 mm
08:40 AM 3.6°F-15.8°C -1.7°F-18.7°C 78% Calm Calm -- 30.50 in1032.8 mb - 0.00 in0.0 mm 0.00 in0.0 mm
08:35 AM 3.2°F-16.0°C -2.1°F-18.9°C 78% Calm Calm -- 30.50 in1032.8 mb - 0.00 in0.0 mm 0.00 in0.0 mm
08:30 AM 2.8°F-16.2°C -2.5°F-19.2°C 78% Calm Calm -- 30.49 in1032.5 mb - 0.00 in0.0 mm 0.00 in0.0 mm
08:25 AM 2.4°F-16.4°C -3.2°F-19.6°C 77% Calm Calm -- 30.49 in1032.5 mb - 0.00 in0.0 mm 0.00 in0.0 mm
08:20 AM 2.1°F-16.6°C -3.5°F-19.7°C 77% Calm Calm -- 30.49 in1032.5 mb - 0.00 in0.0 mm 0.00 in0.0 mm
08:15 AM 2.0°F-16.7°C -3.6°F-19.8°C 77% Calm Calm -- 30.48 in1032.2 mb - 0.00 in0.0 mm 0.00 in0.0 mm
08:10 AM 2.0°F-16.7°C -3.8°F-19.9°C 76% 1.2 mph WSW1.9 kmh WSW 4.6 mph7.4 kmh 30.48 in1032.2 mb - 0.00 in0.0 mm 0.00 in0.0 mm
08:00 AM 2.2°F-16.6°C -3.3°F-19.6°C 77% Calm Calm -- 30.47 in1031.8 mb - 0.00 in0.0 mm 0.00 in0.0 mm
07:55 AM 2.3°F-16.5°C -3.3°F-19.6°C 77% Calm Calm -- 30.47 in1031.8 mb - 0.00 in0.0 mm 0.00 in0.0 mm
07:50 AM 2.4°F-16.4°C -3.2°F-19.6°C 77% Calm Calm -- 30.47 in1031.8 mb - 0.00 in0.0 mm 0.00 in0.0 mm
07:40 AM 2.3°F-16.5°C -3.3°F-19.6°C 77% Calm Calm -- 30.46 in1031.5 mb - 0.00 in0.0 mm 0.00 in0.0 mm
07:35 AM 2.3°F-16.5°C -3.3°F-19.6°C 77% Calm Calm -- 30.46 in1031.5 mb - 0.00 in0.0 mm 0.00 in0.0 mm
07:30 AM 2.3°F-16.5°C -3.3°F-19.6°C 77% Calm Calm -- 30.46 in1031.5 mb - 0.00 in0.0 mm 0.00 in0.0 mm
07:25 AM 2.2°F-16.6°C -3.3°F-19.6°C 77% Calm Calm -- 30.46 in1031.5 mb - 0.00 in0.0 mm 0.00 in0.0 mm
07:20 AM 2.0°F-16.7°C -3.5°F-19.7°C 77% Calm Calm 1.2 mph1.9 kmh 30.46 in1031.5 mb - 0.00 in0.0 mm 0.00 in0.0 mm
07:15 AM 1.9°F-16.7°C -3.7°F-19.8°C 77% Calm Calm -- 30.46 in1031.5 mb - 0.00 in0.0 mm 0.00 in0.0 mm
07:10 AM 1.8°F-16.8°C -3.7°F-19.8°C 77% Calm Calm -- 30.45 in1031.2 mb - 0.00 in0.0 mm 0.00 in0.0 mm
07:00 AM 1.8°F-16.8°C -4.0°F-20.0°C 76% Calm Calm -- 30.45 in1031.2 mb - 0.00 in0.0 mm 0.00 in0.0 mm
06:55 AM 1.9°F-16.7°C -3.9°F-19.9°C 76% Calm Calm -- 30.45 in1031.2 mb - 0.00 in0.0 mm 0.00 in0.0 mm
06:50 AM 2.1°F-16.6°C -3.7°F-19.8°C 76% Calm Calm -- 30.45 in1031.2 mb - 0.00 in0.0 mm 0.00 in0.0 mm
06:45 AM 2.4°F-16.4°C -3.4°F-19.7°C 76% Calm Calm -- 30.44 in1030.8 mb - 0.00 in0.0 mm 0.00 in0.0 mm
06:40 AM 2.5°F-16.4°C -3.3°F-19.6°C 76% Calm Calm -- 30.44 in1030.8 mb - 0.00 in0.0 mm 0.00 in0.0 mm
06:35 AM 2.5°F-16.4°C -3.1°F-19.5°C 77% Calm Calm -- 30.44 in1030.8 mb - 0.00 in0.0 mm 0.00 in0.0 mm
06:30 AM 2.6°F-16.3°C -3.0°F-19.4°C 77% Calm Calm -- 30.43 in1030.5 mb - 0.00 in0.0 mm 0.00 in0.0 mm
06:25 AM 2.5°F-16.4°C -3.3°F-19.6°C 76% Calm Calm -- 30.43 in1030.5 mb - 0.00 in0.0 mm 0.00 in0.0 mm
06:20 AM 2.6°F-16.3°C -3.3°F-19.6°C 76% Calm Calm -- 30.43 in1030.5 mb - 0.00 in0.0 mm 0.00 in0.0 mm
06:15 AM 2.6°F-16.3°C -3.2°F-19.6°C 76% Calm Calm -- 30.43 in1030.5 mb - 0.00 in0.0 mm 0.00 in0.0 mm
06:10 AM 2.7°F-16.3°C -3.1°F-19.5°C 76% Calm Calm 1.2 mph1.9 kmh 30.43 in1030.5 mb - 0.00 in0.0 mm 0.00 in0.0 mm
06:00 AM 2.9°F-16.2°C -3.0°F-19.4°C 76% Calm Calm -- 30.42 in1030.1 mb - 0.00 in0.0 mm 0.00 in0.0 mm
05:55 AM 3.1°F-16.1°C -2.8°F-19.3°C 76% Calm Calm -- 30.42 in1030.1 mb - 0.00 in0.0 mm 0.00 in0.0 mm
05:50 AM 3.3°F-15.9°C -2.6°F-19.2°C 76% Calm Calm -- 30.41 in1029.8 mb - 0.00 in0.0 mm 0.00 in0.0 mm
05:45 AM 3.4°F-15.9°C -2.4°F-19.1°C 76% Calm Calm -- 30.41 in1029.8 mb - 0.00 in0.0 mm 0.00 in0.0 mm
05:40 AM 3.6°F-15.8°C -2.3°F-19.1°C 76% Calm Calm -- 30.41 in1029.8 mb - 0.00 in0.0 mm 0.00 in0.0 mm
05:35 AM 3.7°F-15.7°C -2.2°F-19.0°C 76% Calm Calm -- 30.41 in1029.8 mb - 0.00 in0.0 mm 0.00 in0.0 mm
05:30 AM 3.8°F-15.7°C -2.1°F-18.9°C 76% Calm Calm -- 30.40 in1029.5 mb - 0.00 in0.0 mm 0.00 in0.0 mm
05:25 AM 3.9°F-15.6°C -2.0°F-18.9°C 76% Calm Calm -- 30.40 in1029.5 mb - 0.00 in0.0 mm 0.00 in0.0 mm
05:20 AM 4.0°F-15.6°C -1.9°F-18.8°C 76% Calm Calm -- 30.40 in1029.5 mb - 0.00 in0.0 mm 0.00 in0.0 mm
05:15 AM 4.1°F-15.5°C -2.0°F-18.9°C 75% Calm Calm -- 30.39 in1029.1 mb - 0.00 in0.0 mm 0.00 in0.0 mm
05:10 AM 4.4°F-15.3°C -1.5°F-18.6°C 76% 1.2 mph W1.9 kmh W 5.8 mph9.3 kmh 30.39 in1029.1 mb - 0.00 in0.0 mm 0.00 in0.0 mm
05:00 AM 4.7°F-15.2°C -1.3°F-18.5°C 76% 1.2 mph NNW1.9 kmh NNW -- 30.39 in1029.1 mb - 0.00 in0.0 mm 0.00 in0.0 mm
04:55 AM 4.7°F-15.2°C -1.2°F-18.4°C 76% Calm Calm -- 30.39 in1029.1 mb - 0.00 in0.0 mm 0.00 in0.0 mm
04:50 AM 4.7°F-15.2°C -1.2°F-18.4°C 76% Calm Calm -- 30.39 in1029.1 mb - 0.00 in0.0 mm 0.00 in0.0 mm
04:45 AM 4.6°F-15.2°C -1.3°F-18.5°C 76% Calm Calm 1.2 mph1.9 kmh 30.39 in1029.1 mb - 0.00 in0.0 mm 0.00 in0.0 mm
04:40 AM 4.6°F-15.2°C -1.3°F-18.5°C 76% Calm Calm 3.5 mph5.6 kmh 30.38 in1028.8 mb - 0.00 in0.0 mm 0.00 in0.0 mm
04:35 AM 4.6°F-15.2°C -1.3°F-18.5°C 76% Calm Calm 1.2 mph1.9 kmh 30.38 in1028.8 mb - 0.00 in0.0 mm 0.00 in0.0 mm
04:30 AM 4.7°F-15.2°C -1.5°F-18.6°C 75% Calm Calm -- 30.38 in1028.8 mb - 0.00 in0.0 mm 0.00 in0.0 mm
04:25 AM 4.8°F-15.1°C -1.4°F-18.6°C 75% Calm Calm 1.2 mph1.9 kmh 30.38 in1028.8 mb - 0.00 in0.0 mm 0.00 in0.0 mm
04:20 AM 4.8°F-15.1°C -1.1°F-18.4°C 76% Calm Calm 4.6 mph7.4 kmh 30.37 in1028.4 mb - 0.00 in0.0 mm 0.00 in0.0 mm
04:15 AM 4.8°F-15.1°C -1.1°F-18.4°C 76% 2.3 mph NW3.7 kmh NW 3.5 mph5.6 kmh 30.37 in1028.4 mb - 0.00 in0.0 mm 0.00 in0.0 mm
04:10 AM 4.8°F-15.1°C -1.1°F-18.4°C 76% 1.2 mph N1.9 kmh N 4.6 mph7.4 kmh 30.37 in1028.4 mb - 0.00 in0.0 mm 0.00 in0.0 mm
04:00 AM 4.7°F-15.2°C -1.2°F-18.4°C 76% Calm Calm -- 30.36 in1028.1 mb - 0.00 in0.0 mm 0.00 in0.0 mm
03:55 AM 4.7°F-15.2°C -1.5°F-18.6°C 75% Calm Calm 1.2 mph1.9 kmh 30.36 in1028.1 mb - 0.00 in0.0 mm 0.00 in0.0 mm
03:50 AM 4.8°F-15.1°C -1.4°F-18.6°C 75% Calm Calm 3.5 mph5.6 kmh 30.36 in1028.1 mb - 0.00 in0.0 mm 0.00 in0.0 mm
03:45 AM 4.7°F-15.2°C -1.5°F-18.6°C 75% 1.2 mph N1.9 kmh N 8.1 mph13.0 kmh 30.36 in1028.1 mb - 0.00 in0.0 mm 0.00 in0.0 mm
03:40 AM 4.8°F-15.1°C -1.4°F-18.6°C 75% 1.2 mph NNW1.9 kmh NNW 4.6 mph7.4 kmh 30.36 in1028.1 mb - 0.00 in0.0 mm 0.00 in0.0 mm
03:35 AM 4.8°F-15.1°C -1.4°F-18.6°C 75% 2.3 mph N3.7 kmh N 3.5 mph5.6 kmh 30.36 in1028.1 mb - 0.00 in0.0 mm 0.00 in0.0 mm
03:30 AM 4.7°F-15.2°C -1.2°F-18.4°C 76% 3.5 mph NW5.6 kmh NW 4.6 mph7.4 kmh 30.36 in1028.1 mb - 0.00 in0.0 mm 0.00 in0.0 mm
03:25 AM 4.6°F-15.2°C -1.3°F-18.5°C 76% 3.5 mph N5.6 kmh N 9.2 mph14.8 kmh 30.36 in1028.1 mb - 0.00 in0.0 mm 0.00 in0.0 mm
03:20 AM 4.6°F-15.2°C -1.3°F-18.5°C 76% 4.6 mph N7.4 kmh N 5.8 mph9.3 kmh 30.36 in1028.1 mb - 0.00 in0.0 mm 0.00 in0.0 mm
03:15 AM 4.7°F-15.2°C -1.2°F-18.4°C 76% 1.2 mph N1.9 kmh N 3.5 mph5.6 kmh 30.36 in1028.1 mb - 0.00 in0.0 mm 0.00 in0.0 mm
03:10 AM 4.9°F-15.1°C -0.7°F-18.2°C 77% Calm Calm -- 30.35 in1027.8 mb - 0.00 in0.0 mm 0.00 in0.0 mm
03:00 AM 4.9°F-15.1°C -0.7°F-18.2°C 77% 3.5 mph N5.6 kmh N 4.6 mph7.4 kmh 30.35 in1027.8 mb - 0.00 in0.0 mm 0.00 in0.0 mm
02:55 AM 4.9°F-15.1°C -0.7°F-18.2°C 77% Calm Calm 1.2 mph1.9 kmh 30.35 in1027.8 mb - 0.00 in0.0 mm 0.00 in0.0 mm
02:50 AM 4.7°F-15.2°C -0.7°F-18.2°C 78% 3.5 mph N5.6 kmh N 3.5 mph5.6 kmh 30.35 in1027.8 mb - 0.00 in0.0 mm 0.00 in0.0 mm
02:45 AM 4.4°F-15.3°C -0.9°F-18.3°C 78% 2.3 mph N3.7 kmh N 4.6 mph7.4 kmh 30.35 in1027.8 mb - 0.00 in0.0 mm 0.00 in0.0 mm
02:40 AM 4.2°F-15.4°C -1.1°F-18.4°C 78% Calm Calm -- 30.34 in1027.4 mb - 0.00 in0.0 mm 0.00 in0.0 mm
02:35 AM 4.1°F-15.5°C -1.2°F-18.4°C 78% Calm Calm -- 30.34 in1027.4 mb - 0.00 in0.0 mm 0.00 in0.0 mm
02:30 AM 4.0°F-15.6°C -1.3°F-18.5°C 78% Calm Calm -- 30.34 in1027.4 mb - 0.00 in0.0 mm 0.00 in0.0 mm
02:25 AM 4.0°F-15.6°C -1.3°F-18.5°C 78% Calm Calm -- 30.34 in1027.4 mb - 0.00 in0.0 mm 0.00 in0.0 mm
02:20 AM 4.0°F-15.6°C -1.3°F-18.5°C 78% Calm Calm -- 30.34 in1027.4 mb - 0.00 in0.0 mm 0.00 in0.0 mm
02:15 AM 4.1°F-15.5°C -1.2°F-18.4°C 78% Calm Calm -- 30.34 in1027.4 mb - 0.00 in0.0 mm 0.00 in0.0 mm
02:10 AM 4.1°F-15.5°C -1.2°F-18.4°C 78% 2.3 mph N3.7 kmh N 5.8 mph9.3 kmh 30.33 in1027.1 mb - 0.00 in0.0 mm 0.00 in0.0 mm
02:00 AM 4.2°F-15.4°C -1.1°F-18.4°C 78% Calm Calm -- 30.32 in1026.8 mb - 0.00 in0.0 mm 0.00 in0.0 mm
01:55 AM 4.3°F-15.4°C -1.0°F-18.3°C 78% Calm Calm 1.2 mph1.9 kmh 30.32 in1026.8 mb - 0.00 in0.0 mm 0.00 in0.0 mm
01:50 AM 4.4°F-15.3°C -0.7°F-18.2°C 79% Calm Calm -- 30.32 in1026.8 mb - 0.00 in0.0 mm 0.00 in0.0 mm
01:45 AM 4.5°F-15.3°C -0.6°F-18.1°C 79% Calm Calm -- 30.32 in1026.8 mb - 0.00 in0.0 mm 0.00 in0.0 mm
01:40 AM 4.6°F-15.2°C -0.5°F-18.1°C 79% Calm Calm -- 30.32 in1026.8 mb - 0.00 in0.0 mm 0.00 in0.0 mm
01:35 AM 4.6°F-15.2°C -0.5°F-18.1°C 79% Calm Calm -- 30.32 in1026.8 mb - 0.00 in0.0 mm 0.00 in0.0 mm
01:30 AM 4.5°F-15.3°C -0.6°F-18.1°C 79% Calm Calm -- 30.32 in1026.8 mb - 0.00 in0.0 mm 0.00 in0.0 mm
01:25 AM 4.2°F-15.4°C -0.9°F-18.3°C 79% Calm Calm 1.2 mph1.9 kmh 30.31 in1026.4 mb - 0.00 in0.0 mm 0.00 in0.0 mm
01:20 AM 4.0°F-15.6°C -0.8°F-18.2°C 80% Calm Calm -- 30.31 in1026.4 mb - 0.00 in0.0 mm 0.00 in0.0 mm
01:15 AM 3.4°F-15.9°C -1.3°F-18.5°C 80% 1.2 mph NNW1.9 kmh NNW 1.2 mph1.9 kmh 30.31 in1026.4 mb - 0.00 in0.0 mm 0.00 in0.0 mm
01:10 AM 3.0°F-16.1°C -2.1°F-18.9°C 79% 2.3 mph N3.7 kmh N 3.5 mph5.6 kmh 30.31 in1026.4 mb - 0.00 in0.0 mm 0.00 in0.0 mm
01:00 AM 2.9°F-16.2°C -2.1°F-18.9°C 79% Calm Calm -- 30.31 in1026.4 mb - 0.00 in0.0 mm 0.00 in0.0 mm
12:55 AM 3.1°F-16.1°C -1.9°F-18.8°C 79% Calm Calm -- 30.30 in1026.1 mb - 0.00 in0.0 mm 0.00 in0.0 mm
12:50 AM 3.2°F-16.0°C -1.8°F-18.8°C 79% Calm Calm -- 30.30 in1026.1 mb - 0.00 in0.0 mm 0.00 in0.0 mm
12:45 AM 3.3°F-15.9°C -1.7°F-18.7°C 79% Calm Calm -- 30.30 in1026.1 mb - 0.00 in0.0 mm 0.00 in0.0 mm
12:40 AM 3.3°F-15.9°C -1.7°F-18.7°C 79% Calm Calm -- 30.30 in1026.1 mb - 0.00 in0.0 mm 0.00 in0.0 mm
12:35 AM 3.3°F-15.9°C -2.0°F-18.9°C 78% Calm Calm -- 30.30 in1026.1 mb - 0.00 in0.0 mm 0.00 in0.0 mm
12:30 AM 3.4°F-15.9°C -1.9°F-18.8°C 78% Calm Calm -- 30.30 in1026.1 mb - 0.00 in0.0 mm 0.00 in0.0 mm
12:25 AM 3.5°F-15.8°C -1.8°F-18.8°C 78% Calm Calm -- 30.30 in1026.1 mb - 0.00 in0.0 mm 0.00 in0.0 mm
12:20 AM 3.5°F-15.8°C -1.8°F-18.8°C 78% Calm Calm -- 30.30 in1026.1 mb - 0.00 in0.0 mm 0.00 in0.0 mm
12:15 AM 3.4°F-15.9°C -1.9°F-18.8°C 78% Calm Calm -- 30.30 in1026.1 mb - 0.00 in0.0 mm 0.00 in0.0 mm
12:10 AM 3.4°F-15.9°C -1.9°F-18.8°C 78% Calm Calm -- 30.30 in1026.1 mb - 0.00 in0.0 mm 0.00 in0.0 mm
12:00 AM 3.5°F-15.8°C -1.8°F-18.8°C 78% Calm Calm -- 30.30 in1026.1 mb - 0.00 in0.0 mm 0.00 in0.0 mm